sensor_id;sensor_type;location;lat;lon;timestamp;pressure;altitude;pressure_sealevel;temperature;humidity
60319;BME280;46163;52.306;5.634;2023-01-06T00:01:23;101524.69;;;17.19;60.13
60319;BME280;46163;52.306;5.634;2023-01-06T00:03:57;101530.09;;;17.19;60.07
60319;BME280;46163;52.306;5.634;2023-01-06T00:06:25;101517.69;;;17.18;60.20
60319;BME280;46163;52.306;5.634;2023-01-06T00:08:57;101517.09;;;17.16;60.02
60319;BME280;46163;52.306;5.634;2023-01-06T00:11:33;101517.09;;;17.16;59.97
60319;BME280;46163;52.306;5.634;2023-01-06T00:13:59;101504.69;;;17.15;59.96
60319;BME280;46163;52.306;5.634;2023-01-06T00:16:28;101513.00;;;17.13;59.86
60319;BME280;46163;52.306;5.634;2023-01-06T00:18:55;101507.63;;;17.13;60.10
60319;BME280;46163;52.306;5.634;2023-01-06T00:21:22;101507.84;;;17.12;60.06
60319;BME280;46163;52.306;5.634;2023-01-06T00:23:47;101497.31;;;17.10;59.89
60319;BME280;46163;52.306;5.634;2023-01-06T00:26:13;101504.31;;;17.11;60.06
60319;BME280;46163;52.306;5.634;2023-01-06T00:28:40;101503.50;;;17.11;59.78
60319;BME280;46163;52.306;5.634;2023-01-06T00:31:14;101482.03;;;16.92;59.83
60319;BME280;46163;52.306;5.634;2023-01-06T00:33:41;101501.50;;;17.06;60.18
60319;BME280;46163;52.306;5.634;2023-01-06T00:36:08;101509.81;;;17.05;60.04
60319;BME280;46163;52.306;5.634;2023-01-06T00:38:35;101496.44;;;16.98;59.95
60319;BME280;46163;52.306;5.634;2023-01-06T00:41:04;101516.00;;;17.05;59.95
60319;BME280;46163;52.306;5.634;2023-01-06T00:43:50;101523.25;;;17.05;59.83
60319;BME280;46163;52.306;5.634;2023-01-06T00:46:15;101510.72;;;16.99;59.84
60319;BME280;46163;52.306;5.634;2023-01-06T00:48:41;101523.47;;;17.03;59.83
60319;BME280;46163;52.306;5.634;2023-01-06T00:51:06;101513.75;;;17.02;59.78
60319;BME280;46163;52.306;5.634;2023-01-06T00:53:32;101531.75;;;17.02;59.64
60319;BME280;46163;52.306;5.634;2023-01-06T00:56:01;101536.31;;;17.01;59.92
60319;BME280;46163;52.306;5.634;2023-01-06T00:58:33;101534.09;;;16.98;59.71
60319;BME280;46163;52.306;5.634;2023-01-06T01:01:04;101534.09;;;16.98;59.68
60319;BME280;46163;52.306;5.634;2023-01-06T01:03:31;101534.09;;;16.98;59.79
60319;BME280;46163;52.306;5.634;2023-01-06T01:06:02;101531.63;;;16.97;59.83
60319;BME280;46163;52.306;5.634;2023-01-06T01:08:28;101525.03;;;16.92;59.79
60319;BME280;46163;52.306;5.634;2023-01-06T01:10:54;101531.63;;;16.97;59.56
60319;BME280;46163;52.306;5.634;2023-01-06T01:13:20;101531.03;;;16.94;59.59
60319;BME280;46163;52.306;5.634;2023-01-06T01:15:46;101521.78;;;16.90;59.74
60319;BME280;46163;52.306;5.634;2023-01-06T01:18:11;101531.03;;;16.94;59.78
60319;BME280;46163;52.306;5.634;2023-01-06T01:20:37;101524.22;;;16.92;59.76
60319;BME280;46163;52.306;5.634;2023-01-06T01:23:02;101515.34;;;16.91;59.78
60319;BME280;46163;52.306;5.634;2023-01-06T01:25:28;101513.69;;;16.90;59.71
60319;BME280;46163;52.306;5.634;2023-01-06T01:27:53;101510.19;;;16.90;59.83
60319;BME280;46163;52.306;5.634;2023-01-06T01:30:19;101497.81;;;16.89;59.57
60319;BME280;46163;52.306;5.634;2023-01-06T01:32:47;101508.56;;;16.89;59.48
60319;BME280;46163;52.306;5.634;2023-01-06T01:35:13;101496.16;;;16.88;59.62
60319;BME280;46163;52.306;5.634;2023-01-06T01:37:39;101493.72;;;16.86;59.80
60319;BME280;46163;52.306;5.634;2023-01-06T01:40:05;101488.34;;;16.86;59.69
60319;BME280;46163;52.306;5.634;2023-01-06T01:42:31;101491.22;;;16.85;59.71
60319;BME280;46163;52.306;5.634;2023-01-06T01:48:10;101486.03;;;16.72;59.62
60319;BME280;46163;52.306;5.634;2023-01-06T01:50:45;101501.84;;;16.80;59.74
60319;BME280;46163;52.306;5.634;2023-01-06T01:53:17;101504.91;;;16.83;59.52
60319;BME280;46163;52.306;5.634;2023-01-06T01:55:44;101500.81;;;16.81;59.89
60319;BME280;46163;52.306;5.634;2023-01-06T01:58:13;101492.38;;;16.77;59.59
60319;BME280;46163;52.306;5.634;2023-01-06T02:00:42;101494.25;;;16.77;59.58
60319;BME280;46163;52.306;5.634;2023-01-06T02:03:09;101491.31;;;16.78;59.63
60319;BME280;46163;52.306;5.634;2023-01-06T02:05:40;101491.91;;;16.80;59.60
60319;BME280;46163;52.306;5.634;2023-01-06T02:08:41;101481.63;;;16.77;59.45
60319;BME280;46163;52.306;5.634;2023-01-06T02:11:09;101491.75;;;16.75;59.43
60319;BME280;46163;52.306;5.634;2023-01-06T02:13:38;101483.94;;;16.74;59.72
60319;BME280;46163;52.306;5.634;2023-01-06T02:19:01;101475.03;;;16.73;59.51
60319;BME280;46163;52.306;5.634;2023-01-06T02:21:45;101472.94;;;16.75;59.66
60319;BME280;46163;52.306;5.634;2023-01-06T02:32:57;101454.59;;;16.72;59.66
60319;BME280;46163;52.306;5.634;2023-01-06T02:36:12;101458.31;;;16.71;59.64
60319;BME280;46163;52.306;5.634;2023-01-06T02:41:40;101455.88;;;16.70;59.56
60319;BME280;46163;52.306;5.634;2023-01-06T02:44:31;101451.31;;;16.70;59.54
60319;BME280;46163;52.306;5.634;2023-01-06T02:52:57;101426.72;;;16.66;59.45
60319;BME280;46163;52.306;5.634;2023-01-06T03:00:33;101405.31;;;16.60;59.41
60319;BME280;46163;52.306;5.634;2023-01-06T03:03:10;101419.94;;;16.64;59.60
60319;BME280;46163;52.306;5.634;2023-01-06T03:05:39;101420.97;;;16.63;59.55
60319;BME280;46163;52.306;5.634;2023-01-06T03:08:11;101404.94;;;16.56;59.28
60319;BME280;46163;52.306;5.634;2023-01-06T03:10:38;101411.28;;;16.62;59.27
60319;BME280;46163;52.306;5.634;2023-01-06T03:13:11;101394.19;;;16.56;59.27
60319;BME280;46163;52.306;5.634;2023-01-06T03:15:39;101397.47;;;16.58;59.47
60319;BME280;46163;52.306;5.634;2023-01-06T03:18:05;101391.88;;;16.60;59.44
60319;BME280;46163;52.306;5.634;2023-01-06T03:20:31;101384.03;;;16.58;59.51
60319;BME280;46163;52.306;5.634;2023-01-06T03:22:57;101371.63;;;16.57;59.61
60319;BME280;46163;52.306;5.634;2023-01-06T03:25:23;101368.13;;;16.57;59.34
60319;BME280;46163;52.306;5.634;2023-01-06T03:27:48;101358.22;;;16.57;59.21
60319;BME280;46163;52.306;5.634;2023-01-06T03:30:14;101360.06;;;16.57;59.35
60319;BME280;46163;52.306;5.634;2023-01-06T03:33:03;101346.88;;;16.55;59.41
60319;BME280;46163;52.306;5.634;2023-01-06T03:36:07;101338.47;;;16.52;59.25
60319;BME280;46163;52.306;5.634;2023-01-06T03:38:46;101355.75;;;16.56;59.35
60319;BME280;46163;52.306;5.634;2023-01-06T03:41:39;101349.78;;;16.54;59.11
60319;BME280;46163;52.306;5.634;2023-01-06T03:44:42;101335.53;;;16.53;59.22
60319;BME280;46163;52.306;5.634;2023-01-06T03:47:16;101339.50;;;16.51;59.19
60319;BME280;46163;52.306;5.634;2023-01-06T03:49:54;101342.19;;;16.51;59.21
60319;BME280;46163;52.306;5.634;2023-01-06T03:52:30;101340.34;;;16.51;59.47
60319;BME280;46163;52.306;5.634;2023-01-06T03:55:13;101337.25;;;16.48;59.21
60319;BME280;46163;52.306;5.634;2023-01-06T03:57:46;101338.66;;;16.50;59.34
60319;BME280;46163;52.306;5.634;2023-01-06T04:00:18;101313.66;;;16.50;59.08
60319;BME280;46163;52.306;5.634;2023-01-06T04:02:45;101303.97;;;16.49;59.18
60319;BME280;46163;52.306;5.634;2023-01-06T04:05:21;101293.94;;;16.44;59.33
60319;BME280;46163;52.306;5.634;2023-01-06T04:07:48;101290.78;;;16.47;59.40
60319;BME280;46163;52.306;5.634;2023-01-06T04:10:16;101272.88;;;16.41;59.24
60319;BME280;46163;52.306;5.634;2023-01-06T04:12:42;101282.72;;;16.47;59.10
60319;BME280;46163;52.306;5.634;2023-01-06T04:15:09;101282.94;;;16.46;59.05
60319;BME280;46163;52.306;5.634;2023-01-06T04:17:36;101282.59;;;16.42;59.15
60319;BME280;46163;52.306;5.634;2023-01-06T04:20:05;101278.84;;;16.43;59.01
60319;BME280;46163;52.306;5.634;2023-01-06T04:22:32;101269.84;;;16.37;59.23
60319;BME280;46163;52.306;5.634;2023-01-06T04:24:57;101286.69;;;16.45;59.07
60319;BME280;46163;52.306;5.634;2023-01-06T04:27:23;101283.41;;;16.43;59.00
60319;BME280;46163;52.306;5.634;2023-01-06T04:29:49;101273.47;;;16.43;59.09
60319;BME280;46163;52.306;5.634;2023-01-06T04:32:14;101265.63;;;16.42;59.21
60319;BME280;46163;52.306;5.634;2023-01-06T04:34:41;101272.66;;;16.43;59.07
60319;BME280;46163;52.306;5.634;2023-01-06T04:37:07;101269.97;;;16.43;59.20
60319;BME280;46163;52.306;5.634;2023-01-06T04:39:32;101262.94;;;16.42;59.17
60319;BME280;46163;52.306;5.634;2023-01-06T04:41:58;101255.72;;;16.42;59.15
60319;BME280;46163;52.306;5.634;2023-01-06T04:44:24;101255.34;;;16.38;59.18
60319;BME280;46163;52.306;5.634;2023-01-06T04:46:49;101257.81;;;16.40;59.23
60319;BME280;46163;52.306;5.634;2023-01-06T04:49:15;101258.63;;;16.40;59.25
60319;BME280;46163;52.306;5.634;2023-01-06T04:51:40;101260.25;;;16.42;59.32
60319;BME280;46163;52.306;5.634;2023-01-06T04:54:06;101257.13;;;16.45;59.19
60319;BME280;46163;52.306;5.634;2023-01-06T04:56:32;101254.78;;;16.48;59.20
60319;BME280;46163;52.306;5.634;2023-01-06T04:58:58;101253.41;;;16.57;59.03
60319;BME280;46163;52.306;5.634;2023-01-06T05:01:24;101254.97;;;16.65;58.85
60319;BME280;46163;52.306;5.634;2023-01-06T05:03:50;101251.50;;;16.76;58.49
60319;BME280;46163;52.306;5.634;2023-01-06T05:06:16;101251.16;;;16.84;58.16
60319;BME280;46163;52.306;5.634;2023-01-06T05:08:43;101250.38;;;16.95;58.15
60319;BME280;46163;52.306;5.634;2023-01-06T05:11:12;101225.81;;;17.04;57.94
60319;BME280;46163;52.306;5.634;2023-01-06T05:13:39;101224.88;;;17.21;57.46
60319;BME280;46163;52.306;5.634;2023-01-06T05:16:15;101230.72;;;17.30;57.19
60319;BME280;46163;52.306;5.634;2023-01-06T05:18:42;101213.63;;;17.36;57.32
60319;BME280;46163;52.306;5.634;2023-01-06T05:21:07;101219.69;;;17.43;57.18
60319;BME280;46163;52.306;5.634;2023-01-06T05:23:33;101197.47;;;17.48;56.49
60319;BME280;46163;52.306;5.634;2023-01-06T05:26:00;101212.44;;;17.56;56.49
60319;BME280;46163;52.306;5.634;2023-01-06T05:28:27;101204.69;;;17.59;56.51
60319;BME280;46163;52.306;5.634;2023-01-06T05:30:59;101211.72;;;17.60;56.44
60319;BME280;46163;52.306;5.634;2023-01-06T05:33:25;101214.75;;;17.64;56.39
60319;BME280;46163;52.306;5.634;2023-01-06T05:38:25;101225.16;;;17.72;56.21
60319;BME280;46163;52.306;5.634;2023-01-06T05:40:52;101232.78;;;17.75;56.30
60319;BME280;46163;52.306;5.634;2023-01-06T05:43:19;101232.28;;;17.78;55.89
60319;BME280;46163;52.306;5.634;2023-01-06T05:45:45;101226.66;;;17.79;56.19
60319;BME280;46163;52.306;5.634;2023-01-06T05:48:11;101215.88;;;17.79;55.93
60319;BME280;46163;52.306;5.634;2023-01-06T05:50:36;101209.81;;;17.84;55.96
60319;BME280;46163;52.306;5.634;2023-01-06T05:53:02;101203.94;;;17.87;55.89
60319;BME280;46163;52.306;5.634;2023-01-06T05:55:27;101215.28;;;17.89;55.72
60319;BME280;46163;52.306;5.634;2023-01-06T05:57:55;101212.56;;;17.89;55.57
60319;BME280;46163;52.306;5.634;2023-01-06T06:00:21;101217.50;;;17.92;55.59
60319;BME280;46163;52.306;5.634;2023-01-06T06:02:48;101215.88;;;17.91;55.38
60319;BME280;46163;52.306;5.634;2023-01-06T06:05:13;101225.34;;;17.94;55.38
60319;BME280;46163;52.306;5.634;2023-01-06T06:07:41;101222.66;;;17.94;55.48
60319;BME280;46163;52.306;5.634;2023-01-06T06:10:07;101219.13;;;17.93;55.62
60319;BME280;46163;52.306;5.634;2023-01-06T06:12:36;101204.41;;;17.84;55.41
60319;BME280;46163;52.306;5.634;2023-01-06T06:15:01;101226.16;;;17.94;55.64
60319;BME280;46163;52.306;5.634;2023-01-06T06:17:27;101229.41;;;17.96;55.20
60319;BME280;46163;52.306;5.634;2023-01-06T06:19:52;101228.34;;;17.97;55.37
60319;BME280;46163;52.306;5.634;2023-01-06T06:22:18;101231.66;;;17.99;55.38
60319;BME280;46163;52.306;5.634;2023-01-06T06:24:44;101224.38;;;18.00;55.57
60319;BME280;46163;52.306;5.634;2023-01-06T06:27:10;101224.22;;;18.06;55.23
60319;BME280;46163;52.306;5.634;2023-01-06T06:29:37;101237.13;;;18.04;55.61
60319;BME280;46163;52.306;5.634;2023-01-06T06:32:03;101214.03;;;18.08;55.28
60319;BME280;46163;52.306;5.634;2023-01-06T06:34:29;101216.00;;;18.13;55.28
60319;BME280;46163;52.306;5.634;2023-01-06T06:36:54;101228.19;;;18.16;55.21
60319;BME280;46163;52.306;5.634;2023-01-06T06:39:22;101219.63;;;18.19;55.19
60319;BME280;46163;52.306;5.634;2023-01-06T06:42:12;101215.84;;;18.20;55.33
60319;BME280;46163;52.306;5.634;2023-01-06T06:44:38;101219.63;;;18.19;55.31
60319;BME280;46163;52.306;5.634;2023-01-06T06:47:03;101220.75;;;18.23;55.24
60319;BME280;46163;52.306;5.634;2023-01-06T06:49:29;101222.72;;;18.27;55.31
60319;BME280;46163;52.306;5.634;2023-01-06T06:51:55;101220.84;;;18.28;55.17
60319;BME280;46163;52.306;5.634;2023-01-06T06:54:20;101230.06;;;18.32;54.90
60319;BME280;46163;52.306;5.634;2023-01-06T06:56:46;101233.59;;;18.32;55.37
60319;BME280;46163;52.306;5.634;2023-01-06T06:59:12;101244.72;;;18.36;55.22
60319;BME280;46163;52.306;5.634;2023-01-06T07:01:37;101235.31;;;18.39;55.42
60319;BME280;46163;52.306;5.634;2023-01-06T07:04:03;101241.28;;;18.41;55.11
60319;BME280;46163;52.306;5.634;2023-01-06T07:06:28;101227.16;;;18.33;55.46
60319;BME280;46163;52.306;5.634;2023-01-06T07:08:56;101241.63;;;18.44;55.28
60319;BME280;46163;52.306;5.634;2023-01-06T07:11:22;101243.25;;;18.45;55.30
60319;BME280;46163;52.306;5.634;2023-01-06T07:13:47;101263.50;;;18.48;55.20
60319;BME280;46163;52.306;5.634;2023-01-06T07:16:13;101264.06;;;18.50;55.10
60319;BME280;46163;52.306;5.634;2023-01-06T07:18:38;101267.59;;;18.50;55.06
60319;BME280;46163;52.306;5.634;2023-01-06T07:21:05;101261.97;;;18.52;55.16
60319;BME280;46163;52.306;5.634;2023-01-06T07:23:31;101270.53;;;18.49;54.98
60319;BME280;46163;52.306;5.634;2023-01-06T07:25:58;101258.25;;;18.41;54.99
60319;BME280;46163;52.306;5.634;2023-01-06T07:28:25;101278.03;;;18.47;55.05
60319;BME280;46163;52.306;5.634;2023-01-06T07:30:51;101275.84;;;18.44;54.96
60319;BME280;46163;52.306;5.634;2023-01-06T07:33:18;101281.69;;;18.41;54.92
60319;BME280;46163;52.306;5.634;2023-01-06T07:35:44;101284.31;;;18.35;55.40
60319;BME280;46163;52.306;5.634;2023-01-06T07:38:10;101308.19;;;18.44;55.34
60319;BME280;46163;52.306;5.634;2023-01-06T07:40:36;101311.59;;;18.39;55.20
60319;BME280;46163;52.306;5.634;2023-01-06T07:43:06;101328.31;;;18.41;55.44
60319;BME280;46163;52.306;5.634;2023-01-06T07:45:33;101324.59;;;18.42;55.58
60319;BME280;46163;52.306;5.634;2023-01-06T07:47:59;101332.09;;;18.40;55.63
60319;BME280;46163;52.306;5.634;2023-01-06T07:50:25;101339.59;;;18.38;55.63
60319;BME280;46163;52.306;5.634;2023-01-06T07:52:50;101343.91;;;18.39;55.83
60319;BME280;46163;52.306;5.634;2023-01-06T07:55:16;101342.84;;;18.40;55.72
60319;BME280;46163;52.306;5.634;2023-01-06T07:57:42;101334.22;;;18.38;55.73
60319;BME280;46163;52.306;5.634;2023-01-06T08:00:09;101347.19;;;18.41;55.84
60319;BME280;46163;52.306;5.634;2023-01-06T08:02:35;101349.88;;;18.41;55.84
60319;BME280;46163;52.306;5.634;2023-01-06T08:05:02;101353.19;;;18.43;55.63
60319;BME280;46163;52.306;5.634;2023-01-06T08:07:27;101354.69;;;18.39;55.73
60319;BME280;46163;52.306;5.634;2023-01-06T08:09:53;101366.66;;;18.43;55.89
60319;BME280;46163;52.306;5.634;2023-01-06T08:12:19;101370.41;;;18.42;55.77
60319;BME280;46163;52.306;5.634;2023-01-06T08:14:45;101366.06;;;18.41;55.97
60319;BME280;46163;52.306;5.634;2023-01-06T08:17:10;101373.09;;;18.42;55.95
60319;BME280;46163;52.306;5.634;2023-01-06T08:19:37;101390.09;;;18.43;55.93
60319;BME280;46163;52.306;5.634;2023-01-06T08:22:03;101395.25;;;18.44;55.88
60319;BME280;46163;52.306;5.634;2023-01-06T08:24:31;101403.31;;;18.44;55.74
60319;BME280;46163;52.306;5.634;2023-01-06T08:26:57;101393.34;;;18.45;55.79
60319;BME280;46163;52.306;5.634;2023-01-06T08:29:24;101402.25;;;18.45;55.79
60319;BME280;46163;52.306;5.634;2023-01-06T08:31:50;101395.00;;;18.46;55.82
60319;BME280;46163;52.306;5.634;2023-01-06T08:34:16;101397.34;;;18.42;55.61
60319;BME280;46163;52.306;5.634;2023-01-06T08:36:43;101410.09;;;18.47;55.86
60319;BME280;46163;52.306;5.634;2023-01-06T08:39:10;101416.31;;;18.47;55.72
60319;BME280;46163;52.306;5.634;2023-01-06T08:41:35;101418.19;;;18.47;55.79
60319;BME280;46163;52.306;5.634;2023-01-06T08:44:01;101417.84;;;18.43;56.08
60319;BME280;46163;52.306;5.634;2023-01-06T08:46:27;101427.91;;;18.48;56.11
60319;BME280;46163;52.306;5.634;2023-01-06T08:48:54;101428.97;;;18.47;56.20
60319;BME280;46163;52.306;5.634;2023-01-06T08:51:20;101427.34;;;18.46;56.16
60319;BME280;46163;52.306;5.634;2023-01-06T08:53:48;101431.91;;;18.45;56.11
60319;BME280;46163;52.306;5.634;2023-01-06T08:56:18;101436.94;;;18.42;56.36
60319;BME280;46163;52.306;5.634;2023-01-06T08:58:49;101434.16;;;18.36;56.33
60319;BME280;46163;52.306;5.634;2023-01-06T09:01:16;101442.56;;;18.40;56.57
60319;BME280;46163;52.306;5.634;2023-01-06T09:03:43;101455.22;;;18.40;56.54
60319;BME280;46163;52.306;5.634;2023-01-06T09:06:09;101466.00;;;18.40;56.51
60319;BME280;46163;52.306;5.634;2023-01-06T09:08:34;101466.25;;;18.38;56.67
60319;BME280;46163;52.306;5.634;2023-01-06T09:11:04;101466.97;;;18.33;56.54
60319;BME280;46163;52.306;5.634;2023-01-06T09:13:31;101464.84;;;18.35;56.75
60319;BME280;46163;52.306;5.634;2023-01-06T09:15:56;101479.72;;;18.38;56.48
60319;BME280;46163;52.306;5.634;2023-01-06T09:18:22;101475.16;;;18.39;56.40
60319;BME280;46163;52.306;5.634;2023-01-06T09:20:47;101474.09;;;18.40;56.60
60319;BME280;46163;52.306;5.634;2023-01-06T09:23:13;101482.19;;;18.40;56.55
60319;BME280;46163;52.306;5.634;2023-01-06T09:25:41;101476.44;;;18.36;56.38
60319;BME280;46163;52.306;5.634;2023-01-06T09:28:07;101493.78;;;18.40;56.54
60319;BME280;46163;52.306;5.634;2023-01-06T09:30:34;101501.63;;;18.42;56.43
60319;BME280;46163;52.306;5.634;2023-01-06T09:33:00;101490.84;;;18.42;56.43
60319;BME280;46163;52.306;5.634;2023-01-06T09:35:26;101491.69;;;18.42;56.64
60319;BME280;46163;52.306;5.634;2023-01-06T09:37:52;101497.88;;;18.43;56.51
60319;BME280;46163;52.306;5.634;2023-01-06T09:40:22;101504.69;;;18.45;56.59
60319;BME280;46163;52.306;5.634;2023-01-06T09:42:53;101508.19;;;18.46;56.76
60319;BME280;46163;52.306;5.634;2023-01-06T09:45:33;101508.75;;;18.48;56.46
60319;BME280;46163;52.306;5.634;2023-01-06T09:48:02;101513.91;;;18.49;56.73
60319;BME280;46163;52.306;5.634;2023-01-06T09:50:46;101514.72;;;18.50;56.59
60319;BME280;46163;52.306;5.634;2023-01-06T09:53:45;101517.41;;;18.50;56.51
60319;BME280;46163;52.306;5.634;2023-01-06T09:56:14;101516.59;;;18.49;56.41
60319;BME280;46163;52.306;5.634;2023-01-06T09:59:02;101511.22;;;18.49;56.55
60319;BME280;46163;52.306;5.634;2023-01-06T10:01:36;101528.09;;;18.56;56.44
60319;BME280;46163;52.306;5.634;2023-01-06T10:04:04;101532.66;;;18.56;56.34
60319;BME280;46163;52.306;5.634;2023-01-06T10:06:43;101536.53;;;18.60;56.19
60319;BME280;46163;52.306;5.634;2023-01-06T10:15:07;101539.00;;;18.61;56.12
60319;BME280;46163;52.306;5.634;2023-01-06T10:25:50;101527.28;;;18.68;55.87
60319;BME280;46163;52.306;5.634;2023-01-06T10:28:34;101550.03;;;18.72;55.81
60319;BME280;46163;52.306;5.634;2023-01-06T10:31:05;101544.06;;;18.70;56.01
60319;BME280;46163;52.306;5.634;2023-01-06T10:33:39;101553.88;;;18.76;55.92
60319;BME280;46163;52.306;5.634;2023-01-06T10:36:14;101560.94;;;18.77;56.05
60319;BME280;46163;52.306;5.634;2023-01-06T10:38:46;101547.56;;;18.70;56.26
60319;BME280;46163;52.306;5.634;2023-01-06T10:44:10;101573.94;;;18.80;56.33
60319;BME280;46163;52.306;5.634;2023-01-06T10:46:37;101564.44;;;18.77;56.55
60319;BME280;46163;52.306;5.634;2023-01-06T10:49:05;101559.88;;;18.78;56.31
60319;BME280;46163;52.306;5.634;2023-01-06T10:51:40;101565.34;;;18.83;56.47
60319;BME280;46163;52.306;5.634;2023-01-06T10:54:18;101569.69;;;18.84;56.38
60319;BME280;46163;52.306;5.634;2023-01-06T10:57:00;101562.91;;;18.81;56.60
60319;BME280;46163;52.306;5.634;2023-01-06T10:59:28;101572.63;;;18.82;56.50
60319;BME280;46163;52.306;5.634;2023-01-06T11:01:55;101570.75;;;18.83;56.44
60319;BME280;46163;52.306;5.634;2023-01-06T11:04:49;101563.72;;;18.82;56.64
60319;BME280;46163;52.306;5.634;2023-01-06T11:07:15;101565.34;;;18.83;56.58
60319;BME280;46163;52.306;5.634;2023-01-06T11:09:42;101560.19;;;18.81;56.45
60319;BME280;46163;52.306;5.634;2023-01-06T11:12:14;101557.25;;;18.83;56.56
60319;BME280;46163;52.306;5.634;2023-01-06T11:14:41;101545.41;;;18.84;56.49
60319;BME280;46163;52.306;5.634;2023-01-06T11:17:13;101538.38;;;18.83;56.40
60319;BME280;46163;52.306;5.634;2023-01-06T11:19:43;101526.81;;;18.71;56.21
60319;BME280;46163;52.306;5.634;2023-01-06T11:25:02;101547.53;;;18.82;56.28
60319;BME280;46163;52.306;5.634;2023-01-06T11:27:28;101540.16;;;18.77;56.16
60319;BME280;46163;52.306;5.634;2023-01-06T11:29:56;101541.69;;;18.73;56.26
60319;BME280;46163;52.306;5.634;2023-01-06T11:32:26;101543.22;;;18.69;56.39
60319;BME280;46163;52.306;5.634;2023-01-06T11:39:55;101543.56;;;18.61;56.98
60319;BME280;46163;52.306;5.634;2023-01-06T11:42:20;101541.00;;;18.54;57.18
60319;BME280;46163;52.306;5.634;2023-01-06T11:44:46;101548.00;;;18.55;57.03
60319;BME280;46163;52.306;5.634;2023-01-06T11:47:20;101555.63;;;18.58;57.20
60319;BME280;46163;52.306;5.634;2023-01-06T11:49:48;101544.25;;;18.56;57.45
60319;BME280;46163;52.306;5.634;2023-01-06T11:52:22;101541.31;;;18.58;57.97
60319;BME280;46163;52.306;5.634;2023-01-06T11:55:00;101527.19;;;18.51;57.65
60319;BME280;46163;52.306;5.634;2023-01-06T11:57:54;101531.84;;;18.55;57.74
60319;BME280;46163;52.306;5.634;2023-01-06T12:05:57;101528.44;;;18.48;57.99
60319;BME280;46163;52.306;5.634;2023-01-06T12:09:04;101531.38;;;18.47;58.28
60319;BME280;46163;52.306;5.634;2023-01-06T12:11:48;101530.22;;;18.43;58.62
60319;BME280;46163;52.306;5.634;2023-01-06T12:14:38;101538.53;;;18.41;58.60
60319;BME280;46163;52.306;5.634;2023-01-06T12:19:39;101518.75;;;18.35;58.76
60319;BME280;46163;52.306;5.634;2023-01-06T12:22:25;101522.72;;;18.33;59.24
60319;BME280;46163;52.306;5.634;2023-01-06T12:24:54;101508.69;;;18.19;59.35
60319;BME280;46163;52.306;5.634;2023-01-06T12:27:37;101518.88;;;18.29;59.22
60319;BME280;46163;52.306;5.634;2023-01-06T12:30:09;101515.59;;;18.27;59.39
60319;BME280;46163;52.306;5.634;2023-01-06T12:32:42;101509.63;;;18.25;58.96
60319;BME280;46163;52.306;5.634;2023-01-06T12:35:13;101507.13;;;18.23;59.20
60319;BME280;46163;52.306;5.634;2023-01-06T12:37:46;101511.94;;;18.21;59.11
60319;BME280;46163;52.306;5.634;2023-01-06T12:43:27;101504.44;;;18.23;59.25
60319;BME280;46163;52.306;5.634;2023-01-06T12:46:16;101508.44;;;18.21;59.22
60319;BME280;46163;52.306;5.634;2023-01-06T12:48:51;101502.22;;;18.20;59.12
60319;BME280;46163;52.306;5.634;2023-01-06T12:51:24;101488.88;;;18.14;58.99
60319;BME280;46163;52.306;5.634;2023-01-06T12:53:56;101500.84;;;18.18;59.01
60319;BME280;46163;52.306;5.634;2023-01-06T13:04:41;101536.09;;;18.16;58.38
60319;BME280;46163;52.306;5.634;2023-01-06T13:07:28;101534.44;;;18.15;58.85
60319;BME280;46163;52.306;5.634;2023-01-06T13:10:23;101534.91;;;18.12;58.58
60319;BME280;46163;52.306;5.634;2023-01-06T13:13:07;101540.28;;;18.12;58.56
60319;BME280;46163;52.306;5.634;2023-01-06T13:15:43;101544.03;;;18.11;58.86
60319;BME280;46163;52.306;5.634;2023-01-06T13:18:18;101539.47;;;18.12;58.61
60319;BME280;46163;52.306;5.634;2023-01-06T13:24:05;101546.16;;;18.09;58.81
60319;BME280;46163;52.306;5.634;2023-01-06T13:26:45;101529.19;;;18.08;58.81
60319;BME280;46163;52.306;5.634;2023-01-06T13:29:37;101535.97;;;18.11;58.74
60319;BME280;46163;52.306;5.634;2023-01-06T13:40:31;101511.63;;;18.18;58.92
60319;BME280;46163;52.306;5.634;2023-01-06T13:43:21;101510.78;;;18.17;58.70
60319;BME280;46163;52.306;5.634;2023-01-06T13:45:56;101510.44;;;18.14;58.62
60319;BME280;46163;52.306;5.634;2023-01-06T13:48:37;101502.59;;;18.12;58.56
60319;BME280;46163;52.306;5.634;2023-01-06T13:51:09;101518.88;;;18.17;58.57
60319;BME280;46163;52.306;5.634;2023-01-06T13:53:40;101507.84;;;18.19;58.80
60319;BME280;46163;52.306;5.634;2023-01-06T13:58:39;101505.63;;;18.27;58.66
60319;BME280;46163;52.306;5.634;2023-01-06T14:03:38;101514.41;;;18.34;58.67
60319;BME280;46163;52.306;5.634;2023-01-06T14:06:42;101513.25;;;18.42;58.48
60319;BME280;46163;52.306;5.634;2023-01-06T14:08:56;101503.63;;;18.46;58.50
60319;BME280;46163;52.306;5.634;2023-01-06T14:11:28;101497.16;;;18.47;58.30
60319;BME280;46163;52.306;5.634;2023-01-06T14:13:58;101508.16;;;18.57;58.33
60319;BME280;46163;52.306;5.634;2023-01-06T14:19:25;101507.38;;;18.69;57.91
60319;BME280;46163;52.306;5.634;2023-01-06T14:21:53;101498.66;;;18.67;57.76
60319;BME280;46163;52.306;5.634;2023-01-06T14:24:52;101501.81;;;18.75;57.74
60319;BME280;46163;52.306;5.634;2023-01-06T14:30:24;101502.38;;;18.89;57.35
60319;BME280;46163;52.306;5.634;2023-01-06T14:35:24;101510.59;;;18.94;57.14
60319;BME280;46163;52.306;5.634;2023-01-06T14:38:03;101507.72;;;19.01;57.23
60319;BME280;46163;52.306;5.634;2023-01-06T14:40:38;101501.75;;;18.99;57.06
60319;BME280;46163;52.306;5.634;2023-01-06T14:43:28;101503.50;;;19.05;57.08
60319;BME280;46163;52.306;5.634;2023-01-06T14:46:06;101522.47;;;19.10;56.96
60319;BME280;46163;52.306;5.634;2023-01-06T14:48:37;101516.00;;;19.11;56.80